Estaimpuis, Belgium
Current Conditions -  °F | °C
As of 10:00 PM on Saturday 22 Nov 2014 (Local Time) from LFQQ Reporting Station
Clear Clear  
Wind Chill: 50°   Ceiling: Unl
Heat Index: 50°   Visibility: 4mi
Dew Point: 50°   Wind: 3mph
Humidity: 100%   Direction: 170°S
Pressure: 30.03"   Gusts: NA
Location:  50.7°N, 3.27°E
Report Text: LFQQ 222100Z 17003KT 7000 NSC 10/10 Q1017 TEMPO 3000 BR
Loading
Personal Weather Stations






























Interactive Weather Map New forecast layout! Learn more

10-Day Weather Forecast

Advertisements
Track Severe Weather on mobile